Aviation Digital Data Service (ADDS)

Output produced by METARs form (0019 UTC 01 May 2017)
found at http://www.aviationweather.gov/adds/metars/
 
KALB 302320Z 0100/0124 08005KT P6SM BKN045 
     FM010300 15011KT P6SM BKN035 
     FM010500 17014G24KT P6SM BKN025 
     FM011000 17012KT P6SM BKN015 OVC025 
     FM011400 17013G19KT P6SM BKN025